Terminal Aerodrome Forecast
Issued by NWS

Home | Current Version | Previous Version | Text Only | Print | Product List | Glossary On
Versions: 1 2 3 4 5 6 7 8 9 10 11 12
000
FTUS42 TJSJ 092347
TAFKPK
TAF
TKPK 092347Z 1000/1024 09010KT P6SM SCT018 SCT022 SCT040
     FM101300 08015KT P6SM SCT020 SCT040
     FM102300 08009KT P6SM FEW018=

USA.gov is the U.S. government's official web portal to all federal, state and local government web resources and services.